createdAt,value
2019-03-15T00:03:09.907Z,11.73
2019-03-15T00:06:32.475Z,9.77
2019-03-15T00:09:55.175Z,9.27
2019-03-15T00:13:17.692Z,6.77
2019-03-15T00:16:39.878Z,6.73
2019-03-15T00:20:02.504Z,10.00
2019-03-15T00:23:25.015Z,9.00
2019-03-15T00:26:47.736Z,7.87
2019-03-15T00:30:11.256Z,9.97
2019-03-15T00:33:33.672Z,5.33
2019-03-15T00:36:56.280Z,9.57
2019-03-15T00:40:19.404Z,10.63
2019-03-15T00:43:41.656Z,9.33
2019-03-15T00:47:04.372Z,11.33
2019-03-15T00:50:26.696Z,7.63
2019-03-15T00:53:49.054Z,12.57
2019-03-15T00:57:11.663Z,8.40
2019-03-15T01:00:34.283Z,9.70
2019-03-15T01:03:56.624Z,8.43
2019-03-15T01:07:19.251Z,8.37
2019-03-15T01:10:41.768Z,6.73
2019-03-15T01:14:04.358Z,9.13
2019-03-15T01:17:26.956Z,10.20
2019-03-15T01:20:49.342Z,9.70
2019-03-15T01:24:11.744Z,9.87
2019-03-15T01:27:34.501Z,9.53
2019-03-15T01:30:56.874Z,10.23
2019-03-15T01:34:19.399Z,11.57
2019-03-15T01:37:42.132Z,8.73
2019-03-15T01:41:04.910Z,12.50
2019-03-15T01:44:27.356Z,14.50
2019-03-15T01:47:50.495Z,13.60
2019-03-15T01:51:13.231Z,16.67
2019-03-15T01:54:36.142Z,12.00
2019-03-15T01:57:59.410Z,12.73
2019-03-15T02:01:22.049Z,12.40
2019-03-15T02:04:44.220Z,12.90
2019-03-15T02:08:07.008Z,12.77
2019-03-15T02:11:29.528Z,14.57
2019-03-15T02:14:53.468Z,14.87
2019-03-15T02:18:15.988Z,18.97
2019-03-15T02:21:38.440Z,12.70
2019-03-15T02:25:01.136Z,12.20
2019-03-15T02:28:23.199Z,14.30
2019-03-15T02:31:45.659Z,13.17
2019-03-15T02:35:09.688Z,12.70
2019-03-15T02:38:32.155Z,12.40
2019-03-15T02:41:54.732Z,10.13
2019-03-15T02:45:16.996Z,7.50
2019-03-15T02:48:40.739Z,7.33
2019-03-15T02:52:02.873Z,9.10
2019-03-15T02:55:25.536Z,12.03
2019-03-15T02:58:48.150Z,16.77
2019-03-15T03:02:10.596Z,11.13
2019-03-15T03:05:34.340Z,13.07
2019-03-15T03:08:57.151Z,12.40
2019-03-15T03:12:19.573Z,11.47
2019-03-15T03:15:42.236Z,10.20
2019-03-15T03:19:04.989Z,10.50
2019-03-15T03:22:27.343Z,10.13
2019-03-15T03:25:50.035Z,14.70
2019-03-15T03:29:12.559Z,10.63
2019-03-15T03:32:35.303Z,8.50
2019-03-15T03:35:57.730Z,11.97
2019-03-15T03:39:20.158Z,9.30
2019-03-15T03:42:42.402Z,9.53
2019-03-15T03:46:04.641Z,8.27
2019-03-15T03:49:27.506Z,7.93
2019-03-15T03:52:50.340Z,9.80
2019-03-15T03:56:13.203Z,14.00
2019-03-15T03:59:35.931Z,12.10
2019-03-15T04:02:58.490Z,9.57
2019-03-15T04:06:20.536Z,12.37
2019-03-15T04:09:42.735Z,15.63
2019-03-15T04:13:05.052Z,16.70
2019-03-15T04:16:27.371Z,14.27
2019-03-15T04:19:50.509Z,10.77
2019-03-15T04:23:13.116Z,11.47
2019-03-15T04:26:35.505Z,14.20
2019-03-15T04:29:57.777Z,13.40
2019-03-15T04:33:20.266Z,12.53
2019-03-15T04:36:42.878Z,14.13
2019-03-15T04:40:05.675Z,10.97
2019-03-15T04:43:28.076Z,11.90
2019-03-15T04:46:50.489Z,12.17
2019-03-15T04:50:12.571Z,10.47
2019-03-15T04:53:35.113Z,10.70
2019-03-15T04:56:57.203Z,14.00
2019-03-15T05:00:19.640Z,6.83
2019-03-15T05:03:41.890Z,10.80
2019-03-15T05:07:04.492Z,9.57
2019-03-15T05:10:27.031Z,10.53
2019-03-15T05:13:49.969Z,9.87
2019-03-15T05:17:12.591Z,8.73
2019-03-15T05:20:35.252Z,11.57
2019-03-15T05:23:57.840Z,8.20
2019-03-15T05:27:20.332Z,8.37
2019-03-15T05:30:43.057Z,13.33
2019-03-15T05:34:05.125Z,15.43
2019-03-15T05:37:27.532Z,11.93
2019-03-15T05:40:49.661Z,14.37
2019-03-15T05:44:12.311Z,14.67
2019-03-15T05:47:34.636Z,14.97
2019-03-15T05:50:57.292Z,13.93
2019-03-15T05:54:20.005Z,11.63
2019-03-15T05:57:42.358Z,13.33
2019-03-15T06:01:04.785Z,15.07
2019-03-15T06:04:27.472Z,12.10
2019-03-15T06:07:50.089Z,10.80
2019-03-15T06:11:12.835Z,8.67
2019-03-15T06:14:36.133Z,11.97
2019-03-15T06:17:58.741Z,10.00
2019-03-15T06:21:21.507Z,11.93
2019-03-15T06:24:43.878Z,8.57
2019-03-15T06:28:06.314Z,13.53
2019-03-15T06:31:28.680Z,14.93
2019-03-15T06:34:51.098Z,15.00
2019-03-15T06:38:13.763Z,15.77
2019-03-15T06:41:36.111Z,10.07
2019-03-15T06:44:58.904Z,14.43
2019-03-15T06:48:21.507Z,9.30
2019-03-15T06:51:44.026Z,11.47
2019-03-15T06:55:06.614Z,9.90
2019-03-15T06:58:29.165Z,10.87
2019-03-15T07:01:51.683Z,11.60
2019-03-15T07:05:14.234Z,10.37
2019-03-15T07:08:36.286Z,16.50
2019-03-15T07:12:08.907Z,13.13
2019-03-15T07:15:23.093Z,17.27
2019-03-15T07:18:45.467Z,14.60
2019-03-15T07:22:08.118Z,12.33
2019-03-15T07:25:30.198Z,11.07
2019-03-15T07:28:52.598Z,14.07
2019-03-15T07:32:15.027Z,16.53
2019-03-15T07:35:37.160Z,13.10
2019-03-15T07:38:59.222Z,14.40
2019-03-15T07:42:21.639Z,13.33
2019-03-15T07:45:43.794Z,11.43
2019-03-15T07:49:06.180Z,12.97
2019-03-15T07:52:28.693Z,15.70
2019-03-15T07:55:51.144Z,8.70
2019-03-15T07:59:13.602Z,15.60
2019-03-15T08:02:36.292Z,14.83
2019-03-15T08:05:58.979Z,9.77
2019-03-15T08:09:21.083Z,13.93
2019-03-15T08:12:43.849Z,11.23
2019-03-15T08:16:06.208Z,15.67
2019-03-15T08:19:28.607Z,18.73
2019-03-15T08:22:51.159Z,16.07
2019-03-15T08:26:13.727Z,15.13
2019-03-15T08:29:36.251Z,14.87
2019-03-15T08:33:09.651Z,9.57
2019-03-15T08:36:22.615Z,11.67
2019-03-15T08:39:44.989Z,10.13
2019-03-15T08:43:07.294Z,15.33
2019-03-15T08:46:30.020Z,15.73
2019-03-15T08:49:52.094Z,14.80
2019-03-15T08:53:14.655Z,17.93
2019-03-15T08:56:37.279Z,14.70
2019-03-15T08:59:59.592Z,12.30
2019-03-15T09:03:27.732Z,10.67
2019-03-15T09:06:45.983Z,18.63
2019-03-15T09:10:21.993Z,16.67
2019-03-15T09:13:32.600Z,19.67
2019-03-15T09:16:54.972Z,14.60
2019-03-15T09:20:17.394Z,16.20
2019-03-15T09:23:39.864Z,15.27
2019-03-15T09:27:02.261Z,17.57
2019-03-15T09:30:24.740Z,20.97
2019-03-15T09:33:47.160Z,16.23
2019-03-15T09:37:09.503Z,17.33
2019-03-15T09:40:31.887Z,11.80
2019-03-15T09:43:54.263Z,14.37
2019-03-15T09:47:16.779Z,15.00
2019-03-15T09:50:50.533Z,16.73
2019-03-15T09:54:03.321Z,14.63
2019-03-15T09:57:25.679Z,16.87
2019-03-15T10:00:48.203Z,15.07
2019-03-15T10:04:11.044Z,13.60
2019-03-15T10:07:38.692Z,16.57
2019-03-15T10:10:59.136Z,13.20
2019-03-15T10:14:21.305Z,14.63
2019-03-15T10:17:43.914Z,11.53
2019-03-15T10:21:09.154Z,14.67
2019-03-15T10:24:30.374Z,16.50
2019-03-15T10:27:52.593Z,12.13
2019-03-15T10:31:15.401Z,15.57
2019-03-15T10:34:37.994Z,13.60
2019-03-15T10:38:00.582Z,11.77
2019-03-15T10:41:22.837Z,10.80
2019-03-15T10:44:45.258Z,14.50
2019-03-15T10:48:08.310Z,13.37
2019-03-15T10:51:30.822Z,12.80
2019-03-15T10:54:53.325Z,15.10
2019-03-15T10:58:15.398Z,12.63
2019-03-15T11:01:37.855Z,13.97
2019-03-15T11:05:00.526Z,13.27
2019-03-15T11:08:24.304Z,9.67
2019-03-15T11:11:46.849Z,8.80
2019-03-15T11:15:09.585Z,11.27
2019-03-15T11:18:31.983Z,10.03
2019-03-15T11:21:54.371Z,12.07
2019-03-15T11:25:16.716Z,8.57
2019-03-15T11:28:39.188Z,8.67
2019-03-15T11:32:01.542Z,11.97
2019-03-15T11:35:23.680Z,11.03
2019-03-15T11:38:46.098Z,9.83
2019-03-15T11:42:08.800Z,11.57
2019-03-15T11:45:31.108Z,11.03
2019-03-15T11:48:53.570Z,13.17
2019-03-15T11:52:16.048Z,14.27
2019-03-15T11:55:38.503Z,11.60
2019-03-15T11:59:00.781Z,15.93
2019-03-15T12:02:23.584Z,12.97
2019-03-15T12:05:46.298Z,18.10
2019-03-15T12:09:08.926Z,12.30
2019-03-15T12:12:31.273Z,12.73
2019-03-15T12:15:53.772Z,11.33
2019-03-15T12:19:15.738Z,12.33
2019-03-15T12:22:39.897Z,11.07
2019-03-15T12:26:02.403Z,7.63
2019-03-15T12:29:33.199Z,12.97
2019-03-15T12:32:55.740Z,9.70
2019-03-15T12:36:18.214Z,12.80
2019-03-15T12:39:40.814Z,13.57
2019-03-15T12:43:03.499Z,13.53
2019-03-15T12:46:26.110Z,15.03
2019-03-15T12:49:48.707Z,13.77
2019-03-15T12:53:11.298Z,12.37
2019-03-15T12:56:33.927Z,10.73
2019-03-15T12:59:56.465Z,12.33
2019-03-15T13:03:19.364Z,10.53
2019-03-15T13:06:42.223Z,11.10
2019-03-15T13:10:10.017Z,11.90
2019-03-15T13:13:31.078Z,20.80
2019-03-15T13:16:53.721Z,11.57
2019-03-15T13:20:16.332Z,11.10
2019-03-15T13:23:38.620Z,12.87
2019-03-15T13:27:07.421Z,9.73
2019-03-15T13:30:25.195Z,9.53
2019-03-15T13:33:47.501Z,9.63
2019-03-15T13:37:10.028Z,6.83
2019-03-15T13:40:32.618Z,7.70
2019-03-15T13:43:55.236Z,5.83
2019-03-15T13:47:17.964Z,6.80
2019-03-15T13:50:40.247Z,7.50
2019-03-15T13:54:02.616Z,6.83
2019-03-15T13:57:24.967Z,7.67
2019-03-15T14:00:47.605Z,6.87
2019-03-15T14:04:10.392Z,6.40
2019-03-15T14:07:33.018Z,8.30
2019-03-15T14:10:55.325Z,6.63
2019-03-15T14:14:17.804Z,9.87
2019-03-15T14:17:39.859Z,8.50
2019-03-15T14:21:02.167Z,11.93
2019-03-15T14:24:24.793Z,11.83
2019-03-15T14:27:47.218Z,6.70
2019-03-15T14:31:09.901Z,8.87
2019-03-15T14:34:32.373Z,11.80
2019-03-15T14:37:54.836Z,11.90
2019-03-15T14:41:17.430Z,12.50
2019-03-15T14:44:40.202Z,13.03
2019-03-15T14:48:02.749Z,16.20
2019-03-15T14:51:25.491Z,16.77
2019-03-15T14:54:47.968Z,16.60
2019-03-15T14:58:10.600Z,14.47
2019-03-15T15:01:33.397Z,12.60
2019-03-15T15:04:55.801Z,15.00
2019-03-15T15:08:18.484Z,18.17
2019-03-15T15:11:40.592Z,13.60
2019-03-15T15:15:03.321Z,15.87
2019-03-15T15:18:26.530Z,14.63
2019-03-15T15:21:48.927Z,18.07
2019-03-15T15:25:11.393Z,15.73
2019-03-15T15:28:33.483Z,14.83
2019-03-15T15:31:56.056Z,16.50
2019-03-15T15:35:18.243Z,10.20
2019-03-15T15:38:40.627Z,11.63
2019-03-15T15:42:03.047Z,14.33
2019-03-15T15:45:25.499Z,11.90
2019-03-15T15:48:47.694Z,9.33
2019-03-15T15:52:10.274Z,8.00
2019-03-15T15:55:32.463Z,9.17
2019-03-15T15:58:55.023Z,14.57
2019-03-15T16:02:17.725Z,12.97
2019-03-15T16:05:40.394Z,8.27
2019-03-15T16:09:03.477Z,8.37
2019-03-15T16:12:25.963Z,12.73
2019-03-15T16:15:48.647Z,9.97
2019-03-15T16:19:11.254Z,9.70
2019-03-15T16:22:34.157Z,10.53
2019-03-15T16:25:56.675Z,9.57
2019-03-15T16:29:19.392Z,10.83
2019-03-15T16:32:42.281Z,12.17
2019-03-15T16:36:04.769Z,10.70
2019-03-15T16:39:27.272Z,9.17
2019-03-15T16:42:49.823Z,7.90
2019-03-15T16:46:12.355Z,11.37
2019-03-15T16:49:34.688Z,10.27
2019-03-15T16:52:57.319Z,8.00
2019-03-15T16:56:20.353Z,13.53
2019-03-15T16:59:42.853Z,11.67
2019-03-15T17:03:04.997Z,11.63
2019-03-15T17:06:27.472Z,12.17
2019-03-15T17:09:50.093Z,9.40
2019-03-15T17:13:12.093Z,10.03
2019-03-15T17:16:34.754Z,10.20
2019-03-15T17:19:57.267Z,7.77
2019-03-15T17:23:19.978Z,12.43
2019-03-15T17:26:42.624Z,9.43
2019-03-15T17:30:06.304Z,10.47
2019-03-15T17:33:28.691Z,7.47
2019-03-15T17:36:50.871Z,8.57
2019-03-15T17:40:13.515Z,9.20
2019-03-15T17:43:36.220Z,6.67
2019-03-15T17:46:58.333Z,6.63
2019-03-15T17:50:20.696Z,6.33
2019-03-15T17:53:43.235Z,8.30
2019-03-15T17:57:06.295Z,4.27
2019-03-15T18:00:39.196Z,7.90
2019-03-15T18:04:01.773Z,5.73
2019-03-15T18:07:24.134Z,4.33
2019-03-15T18:10:46.812Z,5.80
2019-03-15T18:14:09.325Z,5.40
2019-03-15T18:17:31.831Z,6.30
2019-03-15T18:20:54.330Z,7.10
2019-03-15T18:24:16.811Z,3.80
2019-03-15T18:27:39.275Z,5.10
2019-03-15T18:31:01.811Z,5.60
2019-03-15T18:34:24.033Z,5.70
2019-03-15T18:37:46.574Z,6.27
2019-03-15T18:41:08.799Z,4.67
2019-03-15T18:44:31.179Z,5.57
2019-03-15T18:47:53.618Z,4.30
2019-03-15T18:51:16.275Z,7.60
2019-03-15T18:54:38.483Z,3.60
2019-03-15T18:58:00.987Z,6.53
2019-03-15T19:01:23.644Z,4.27
2019-03-15T19:04:46.331Z,5.90
2019-03-15T19:08:08.562Z,4.70
2019-03-15T19:11:31.075Z,6.17
2019-03-15T19:14:53.255Z,4.83
2019-03-15T19:18:15.464Z,6.07
2019-03-15T19:21:37.961Z,5.63
2019-03-15T19:25:00.360Z,6.10
2019-03-15T19:28:22.631Z,7.70
2019-03-15T19:31:44.946Z,5.43
2019-03-15T19:35:08.031Z,5.77
2019-03-15T19:38:30.744Z,5.13
2019-03-15T19:41:53.319Z,5.93
2019-03-15T19:45:16.148Z,4.03
2019-03-15T19:48:41.862Z,5.87
2019-03-15T19:52:02.415Z,6.80
2019-03-15T19:55:25.096Z,4.87
2019-03-15T19:58:47.505Z,8.60
2019-03-15T20:02:09.695Z,5.17
2019-03-15T20:05:31.859Z,7.33
2019-03-15T20:08:54.344Z,4.67
2019-03-15T20:12:16.772Z,6.57
2019-03-15T20:15:39.270Z,4.00
2019-03-15T20:19:01.433Z,8.20
2019-03-15T20:22:23.910Z,6.87
2019-03-15T20:25:46.235Z,15.30
2019-03-15T20:29:08.840Z,9.00
2019-03-15T20:32:31.533Z,7.00
2019-03-15T20:35:54.351Z,6.20
2019-03-15T20:39:16.976Z,8.37
2019-03-15T20:42:39.134Z,6.13
2019-03-15T20:46:01.602Z,6.10
2019-03-15T20:49:24.012Z,7.60
2019-03-15T20:52:46.569Z,5.40
2019-03-15T20:56:09.062Z,8.60
2019-03-15T20:59:31.522Z,9.80
2019-03-15T21:02:53.942Z,7.30
2019-03-15T21:06:16.426Z,7.80
